Time;durP1;ratioP1;P1;durP2;ratioP2;P2;SDS_P1;SDS_P2;PMS_P1;PMS_P2;Temp;Humidity;BMP_temperature;BMP_pressure;BME280_temperature;BME280_humidity;BME280_pressure;Samples;Min_cycle;Max_cycle;Signal;HPM_P1;HPM_P2
2020/12/06 00:01:18;;;;;;;30.83;17.60;;;;;;;;;;5074844;28;20998;-71
2020/12/06 00:03:44;;;;;;;31.23;17.13;;;;;;;;;;5076140;28;20790;-71
2020/12/06 00:06:10;;;;;;;33.50;18.87;;;;;;;;;;5073583;28;20452;-71
2020/12/06 00:08:38;;;;;;;33.37;16.80;;;;;;;;;;5070339;28;20577;-70
2020/12/06 00:11:04;;;;;;;34.33;18.50;;;;;;;;;;5072787;28;20443;-70
2020/12/06 00:13:30;;;;;;;34.10;18.70;;;;;;;;;;5073426;28;20389;-70
2020/12/06 00:15:56;;;;;;;36.77;16.90;;;;;;;;;;5073872;28;20456;-70
2020/12/06 00:18:22;;;;;;;39.43;20.33;;;;;;;;;;5074482;28;20803;-70
2020/12/06 00:20:48;;;;;;;29.73;17.90;;;;;;;;;;5073429;28;20409;-69
2020/12/06 00:23:20;;;;;;;33.80;18.70;;;;;;;;;;5074280;28;20408;-70
2020/12/06 00:25:47;;;;;;;36.37;17.43;;;;;;;;;;5073158;28;20445;-70
2020/12/06 00:28:13;;;;;;;35.50;17.70;;;;;;;;;;5074115;28;20393;-70
2020/12/06 00:30:39;;;;;;;27.30;15.63;;;;;;;;;;5073284;28;20466;-72
2020/12/06 00:33:05;;;;;;;34.63;15.33;;;;;;;;;;5073355;28;20429;-70
2020/12/06 00:35:31;;;;;;;30.07;17.30;;;;;;;;;;5073779;28;20455;-70
2020/12/06 00:37:57;;;;;;;29.93;19.23;;;;;;;;;;5071779;28;20509;-70
2020/12/06 00:40:23;;;;;;;30.70;16.60;;;;;;;;;;5072108;28;20425;-70
2020/12/06 00:42:49;;;;;;;32.90;17.47;;;;;;;;;;5072691;28;20428;-70
2020/12/06 00:45:15;;;;;;;31.47;17.67;;;;;;;;;;5073479;28;20452;-70
2020/12/06 00:47:41;;;;;;;33.27;19.63;;;;;;;;;;5072786;28;20509;-70
2020/12/06 00:50:07;;;;;;;22.87;15.57;;;;;;;;;;5073529;28;20531;-70
2020/12/06 00:52:34;;;;;;;32.03;16.83;;;;;;;;;;5072543;28;20773;-70
2020/12/06 00:55:00;;;;;;;36.93;17.50;;;;;;;;;;5072141;28;20440;-70
2020/12/06 00:57:26;;;;;;;26.63;15.73;;;;;;;;;;5072382;28;20456;-70
2020/12/06 00:59:52;;;;;;;29.60;16.87;;;;;;;;;;5073372;28;20442;-70
2020/12/06 01:02:18;;;;;;;27.87;17.37;;;;;;;;;;5072469;28;20421;-70
2020/12/06 01:04:45;;;;;;;27.87;16.60;;;;;;;;;;5073504;28;20460;-70
2020/12/06 01:07:11;;;;;;;32.40;18.07;;;;;;;;;;5072203;28;20440;-70
2020/12/06 01:09:37;;;;;;;29.80;18.43;;;;;;;;;;5072190;28;20484;-71
2020/12/06 01:12:03;;;;;;;32.37;16.30;;;;;;;;;;5071147;28;20453;-70
2020/12/06 01:14:29;;;;;;;33.37;16.80;;;;;;;;;;5072240;28;20444;-71
2020/12/06 01:16:55;;;;;;;29.17;16.13;;;;;;;;;;5072209;28;20509;-70
2020/12/06 01:19:21;;;;;;;24.57;15.07;;;;;;;;;;5071924;28;20445;-70
2020/12/06 01:21:48;;;;;;;27.23;16.97;;;;;;;;;;5072327;28;20427;-70
2020/12/06 01:24:14;;;;;;;29.00;16.53;;;;;;;;;;5073193;28;20455;-70
2020/12/06 01:26:41;;;;;;;32.07;16.40;;;;;;;;;;5071962;28;20819;-70
2020/12/06 01:29:07;;;;;;;32.90;16.93;;;;;;;;;;5073092;28;20397;-70
2020/12/06 01:31:33;;;;;;;30.73;18.50;;;;;;;;;;5071252;28;20429;-70
2020/12/06 01:33:59;;;;;;;31.57;16.67;;;;;;;;;;5072927;28;20586;-70
2020/12/06 01:36:25;;;;;;;27.40;14.77;;;;;;;;;;5071085;28;20416;-70
2020/12/06 01:38:51;;;;;;;36.00;16.70;;;;;;;;;;5072934;28;20496;-70
2020/12/06 01:41:19;;;;;;;34.93;17.73;;;;;;;;;;5072257;28;20418;-69
2020/12/06 01:43:56;;;;;;;24.03;15.57;;;;;;;;;;5073167;28;20428;-70
2020/12/06 01:46:22;;;;;;;33.37;16.20;;;;;;;;;;5071772;28;20456;-70
2020/12/06 01:48:48;;;;;;;31.57;15.27;;;;;;;;;;5072790;28;20405;-70
2020/12/06 01:51:15;;;;;;;28.70;16.67;;;;;;;;;;5072640;28;20405;-69
2020/12/06 01:53:41;;;;;;;29.43;17.03;;;;;;;;;;5077168;28;20544;-70
2020/12/06 01:56:07;;;;;;;28.83;16.60;;;;;;;;;;5076500;28;20408;-69
2020/12/06 01:58:34;;;;;;;35.00;16.00;;;;;;;;;;5076116;28;20975;-70
2020/12/06 02:01:00;;;;;;;30.60;16.77;;;;;;;;;;5077064;28;20826;-70
2020/12/06 02:03:26;;;;;;;33.60;18.40;;;;;;;;;;5075794;28;20460;-70
2020/12/06 02:05:52;;;;;;;31.83;16.50;;;;;;;;;;5076759;28;20543;-70
2020/12/06 02:08:18;;;;;;;27.87;16.27;;;;;;;;;;5075884;28;20448;-70
2020/12/06 02:10:44;;;;;;;32.23;15.70;;;;;;;;;;5075447;28;20764;-69
2020/12/06 02:13:10;;;;;;;32.63;18.00;;;;;;;;;;5059095;28;20429;-70
2020/12/06 02:15:39;;;;;;;26.83;15.53;;;;;;;;;;5056400;28;20418;-70
2020/12/06 02:18:05;;;;;;;33.60;17.37;;;;;;;;;;5069941;28;20424;-70
2020/12/06 02:20:31;;;;;;;29.60;18.07;;;;;;;;;;5073560;28;20421;-69
2020/12/06 02:22:57;;;;;;;23.43;15.30;;;;;;;;;;5064503;28;20922;-69
2020/12/06 02:25:23;;;;;;;31.43;16.97;;;;;;;;;;5056177;28;20460;-70
2020/12/06 02:27:49;;;;;;;33.50;17.37;;;;;;;;;;5063489;28;20764;-70
2020/12/06 02:30:15;;;;;;;31.47;18.00;;;;;;;;;;5076404;28;20397;-70
2020/12/06 02:32:41;;;;;;;29.80;15.67;;;;;;;;;;5075166;28;20436;-70
2020/12/06 02:35:07;;;;;;;28.97;18.17;;;;;;;;;;5076145;28;20421;-70
2020/12/06 02:37:33;;;;;;;30.70;17.33;;;;;;;;;;5075251;28;20428;-70
2020/12/06 02:39:59;;;;;;;22.63;14.37;;;;;;;;;;5076240;28;20510;-70
2020/12/06 02:42:25;;;;;;;39.17;18.07;;;;;;;;;;5075273;28;20424;-70
2020/12/06 02:44:51;;;;;;;31.00;16.57;;;;;;;;;;5076118;28;20487;-70
2020/12/06 02:47:17;;;;;;;29.70;16.37;;;;;;;;;;5074078;28;20437;-70
2020/12/06 02:49:43;;;;;;;34.30;16.80;;;;;;;;;;5075846;28;20849;-70
2020/12/06 02:52:09;;;;;;;34.60;18.60;;;;;;;;;;5074763;28;20408;-70
2020/12/06 02:54:35;;;;;;;32.57;16.57;;;;;;;;;;5075927;28;20433;-70
2020/12/06 02:57:01;;;;;;;36.67;18.80;;;;;;;;;;5074021;28;20497;-70
2020/12/06 02:59:27;;;;;;;41.07;20.30;;;;;;;;;;5075681;28;20424;-69
2020/12/06 03:01:53;;;;;;;39.27;18.87;;;;;;;;;;5075274;28;20518;-70
2020/12/06 03:04:19;;;;;;;41.30;19.70;;;;;;;;;;5074178;28;20578;-70
2020/12/06 03:06:45;;;;;;;40.90;17.97;;;;;;;;;;5076534;28;20529;-70
2020/12/06 03:09:11;;;;;;;33.20;19.07;;;;;;;;;;5074527;28;20666;-70
2020/12/06 03:11:39;;;;;;;33.57;19.23;;;;;;;;;;5075898;28;20483;-70
2020/12/06 03:14:05;;;;;;;36.00;18.80;;;;;;;;;;5069436;28;20449;-69
2020/12/06 03:16:31;;;;;;;37.00;17.27;;;;;;;;;;5075354;28;20404;-70
2020/12/06 03:18:57;;;;;;;35.57;18.63;;;;;;;;;;5074477;28;20425;-70
2020/12/06 03:21:23;;;;;;;35.07;17.73;;;;;;;;;;5075325;28;20804;-70
2020/12/06 03:23:49;;;;;;;41.13;18.63;;;;;;;;;;5074022;28;20449;-70
2020/12/06 03:26:15;;;;;;;37.20;18.70;;;;;;;;;;5075679;28;20988;-70
2020/12/06 03:28:41;;;;;;;39.20;18.50;;;;;;;;;;5073107;28;20424;-70
2020/12/06 03:31:07;;;;;;;36.47;16.60;;;;;;;;;;5075119;28;20484;-70
2020/12/06 03:33:33;;;;;;;32.93;19.93;;;;;;;;;;5074069;28;20984;-70
2020/12/06 03:35:59;;;;;;;41.53;18.97;;;;;;;;;;5075101;28;20767;-70
2020/12/06 03:38:25;;;;;;;43.37;19.67;;;;;;;;;;5073897;28;20432;-70
2020/12/06 03:40:51;;;;;;;43.17;19.70;;;;;;;;;;5074909;28;20401;-70
2020/12/06 03:43:17;;;;;;;46.70;20.60;;;;;;;;;;5074057;28;20429;-70
2020/12/06 03:45:43;;;;;;;40.60;19.33;;;;;;;;;;5074923;28;20452;-70
2020/12/06 03:48:09;;;;;;;34.60;17.97;;;;;;;;;;5074575;28;20425;-70
2020/12/06 03:50:35;;;;;;;38.90;18.67;;;;;;;;;;5074792;28;20397;-70
2020/12/06 03:53:02;;;;;;;33.97;18.93;;;;;;;;;;5073871;28;20436;-71
2020/12/06 03:55:28;;;;;;;37.43;18.13;;;;;;;;;;5074828;28;20421;-70
2020/12/06 03:57:54;;;;;;;37.70;19.10;;;;;;;;;;5071390;28;21035;-70
2020/12/06 04:00:23;;;;;;;34.80;18.27;;;;;;;;;;5074258;28;20885;-70
2020/12/06 04:02:50;;;;;;;33.03;18.83;;;;;;;;;;5073659;28;20421;-70
2020/12/06 04:05:20;;;;;;;41.57;19.13;;;;;;;;;;5073491;28;20463;-70
2020/12/06 04:07:46;;;;;;;66.53;19.87;;;;;;;;;;5074367;28;20428;-70
2020/12/06 04:10:12;;;;;;;36.97;18.40;;;;;;;;;;5073394;28;20516;-70
2020/12/06 04:12:38;;;;;;;40.50;18.73;;;;;;;;;;5074309;28;20870;-70
2020/12/06 04:15:04;;;;;;;45.93;19.50;;;;;;;;;;5069087;28;20473;-70
2020/12/06 04:17:30;;;;;;;35.23;18.73;;;;;;;;;;5072987;28;20409;-70
2020/12/06 04:19:56;;;;;;;51.57;20.60;;;;;;;;;;5073125;28;20546;-70
2020/12/06 04:22:22;;;;;;;36.37;19.77;;;;;;;;;;5074138;28;20526;-70
2020/12/06 04:24:48;;;;;;;46.33;24.60;;;;;;;;;;5071831;28;20460;-70
2020/12/06 04:27:14;;;;;;;41.50;21.67;;;;;;;;;;5074005;28;20484;-70
2020/12/06 04:29:40;;;;;;;41.07;19.57;;;;;;;;;;5072911;28;20424;-70
2020/12/06 04:32:06;;;;;;;50.20;21.20;;;;;;;;;;5073892;28;20429;-70
2020/12/06 04:34:36;;;;;;;42.13;20.93;;;;;;;;;;5072983;28;20595;-70
2020/12/06 04:37:02;;;;;;;56.00;23.97;;;;;;;;;;5072490;28;20789;-70
2020/12/06 04:39:28;;;;;;;34.70;18.37;;;;;;;;;;5071510;28;20532;-70
2020/12/06 04:41:54;;;;;;;46.57;20.73;;;;;;;;;;5072446;28;20415;-70
2020/12/06 04:44:20;;;;;;;49.57;22.90;;;;;;;;;;5072597;28;20823;-70
2020/12/06 04:46:46;;;;;;;42.40;20.43;;;;;;;;;;5072545;28;20421;-70
2020/12/06 04:49:12;;;;;;;36.80;18.60;;;;;;;;;;5072741;28;20512;-70
2020/12/06 04:51:42;;;;;;;47.27;22.60;;;;;;;;;;5073731;28;20489;-70
2020/12/06 04:54:08;;;;;;;43.53;18.63;;;;;;;;;;5072496;28;20451;-70
2020/12/06 04:56:34;;;;;;;45.87;19.30;;;;;;;;;;5072441;28;20515;-70
2020/12/06 04:59:01;;;;;;;38.57;19.00;;;;;;;;;;5072617;28;20457;-70
2020/12/06 05:01:33;;;;;;;53.40;20.70;;;;;;;;;;5073674;28;20493;-70
2020/12/06 05:04:03;;;;;;;54.67;22.93;;;;;;;;;;5072572;28;20940;-70
2020/12/06 05:06:29;;;;;;;51.47;24.47;;;;;;;;;;5072041;28;20448;-70
2020/12/06 05:08:57;;;;;;;46.70;22.17;;;;;;;;;;5072225;28;20424;-70
2020/12/06 05:11:23;;;;;;;47.63;21.80;;;;;;;;;;5072019;28;20406;-70
2020/12/06 05:13:50;;;;;;;54.73;22.97;;;;;;;;;;5072681;28;20437;-70
2020/12/06 05:16:16;;;;;;;59.00;25.00;;;;;;;;;;5070833;28;20438;-71
2020/12/06 05:18:42;;;;;;;52.27;22.63;;;;;;;;;;5071604;28;20522;-70
2020/12/06 05:21:08;;;;;;;59.77;23.53;;;;;;;;;;5073159;28;20406;-70
2020/12/06 05:23:34;;;;;;;48.90;22.83;;;;;;;;;;5072051;28;20582;-70
2020/12/06 05:26:00;;;;;;;44.07;23.17;;;;;;;;;;5072724;28;20528;-70
2020/12/06 05:28:26;;;;;;;57.77;22.47;;;;;;;;;;5072323;28;20397;-70
2020/12/06 05:30:54;;;;;;;44.60;20.00;;;;;;;;;;5072426;28;20425;-70
2020/12/06 05:33:20;;;;;;;40.10;20.00;;;;;;;;;;5072176;28;20424;-71
2020/12/06 05:35:46;;;;;;;39.57;20.57;;;;;;;;;;5072761;28;20466;-70
2020/12/06 05:38:13;;;;;;;48.03;22.00;;;;;;;;;;5072924;28;20405;-70
2020/12/06 05:40:45;;;;;;;49.17;22.37;;;;;;;;;;5071939;28;20427;-70
2020/12/06 05:43:13;;;;;;;44.20;21.30;;;;;;;;;;5073773;28;20396;-70
2020/12/06 05:45:39;;;;;;;37.57;20.13;;;;;;;;;;5071733;28;20582;-70
2020/12/06 05:48:05;;;;;;;42.97;20.97;;;;;;;;;;5073103;28;20443;-70
2020/12/06 05:50:32;;;;;;;47.00;21.90;;;;;;;;;;5071837;28;20444;-70
2020/12/06 05:52:58;;;;;;;44.10;20.47;;;;;;;;;;5072811;28;20500;-70
2020/12/06 05:55:25;;;;;;;46.83;20.57;;;;;;;;;;5070853;28;20631;-70
2020/12/06 05:57:52;;;;;;;42.10;20.00;;;;;;;;;;5071748;28;21144;-70
2020/12/06 06:00:19;;;;;;;40.37;19.50;;;;;;;;;;5071985;28;20431;-70
2020/12/06 06:02:45;;;;;;;44.93;22.00;;;;;;;;;;5073018;28;20428;-70
2020/12/06 06:05:13;;;;;;;50.70;23.93;;;;;;;;;;5071844;28;20540;-70
2020/12/06 06:07:40;;;;;;;42.30;20.87;;;;;;;;;;5072973;28;20405;-70
2020/12/06 06:10:07;;;;;;;56.03;22.37;;;;;;;;;;5071868;28;20424;-70
2020/12/06 06:12:43;;;;;;;48.87;20.63;;;;;;;;;;5072945;28;20405;-70
2020/12/06 06:15:09;;;;;;;57.30;20.47;;;;;;;;;;5070899;28;20468;-70
2020/12/06 06:17:35;;;;;;;59.70;21.37;;;;;;;;;;5068189;28;20946;-70
2020/12/06 06:20:01;;;;;;;49.47;24.13;;;;;;;;;;5070558;28;20467;-71
2020/12/06 06:22:34;;;;;;;53.20;22.13;;;;;;;;;;5072911;28;20491;-70
2020/12/06 06:25:01;;;;;;;60.53;24.93;;;;;;;;;;5071713;28;20465;-70
2020/12/06 06:27:34;;;;;;;46.00;21.60;;;;;;;;;;5071430;28;20405;-70
2020/12/06 06:30:00;;;;;;;68.37;24.57;;;;;;;;;;5071609;28;20818;-70
2020/12/06 06:32:26;;;;;;;57.93;23.77;;;;;;;;;;5072529;28;20448;-70
2020/12/06 06:34:53;;;;;;;55.97;24.10;;;;;;;;;;5071524;28;20463;-70
2020/12/06 06:37:19;;;;;;;53.93;22.60;;;;;;;;;;5072438;28;20437;-70
2020/12/06 06:39:46;;;;;;;62.00;24.80;;;;;;;;;;5074107;28;20462;-70
2020/12/06 06:42:14;;;;;;;55.53;23.83;;;;;;;;;;5076084;28;20885;-70
2020/12/06 06:44:44;;;;;;;48.27;23.47;;;;;;;;;;5074729;28;20429;-71
2020/12/06 06:47:11;;;;;;;47.47;23.70;;;;;;;;;;5076082;28;20467;-70
2020/12/06 06:49:55;;;;;;;51.30;23.37;;;;;;;;;;5075631;28;20397;-71
2020/12/06 06:52:23;;;;;;;46.27;23.10;;;;;;;;;;5075775;28;20909;-72
2020/12/06 06:54:49;;;;;;;54.80;22.77;;;;;;;;;;5074334;28;20440;-70
2020/12/06 06:57:16;;;;;;;58.40;24.07;;;;;;;;;;5075753;28;20460;-70
2020/12/06 06:59:48;;;;;;;51.40;23.43;;;;;;;;;;5074946;28;20420;-72
2020/12/06 07:02:20;;;;;;;42.47;21.63;;;;;;;;;;5056242;28;20777;-70
2020/12/06 07:04:47;;;;;;;57.60;24.07;;;;;;;;;;5055648;28;20855;-70
2020/12/06 07:07:13;;;;;;;60.90;23.60;;;;;;;;;;5074475;28;20929;-70
2020/12/06 07:09:39;;;;;;;53.07;22.80;;;;;;;;;;5075670;28;20393;-70
2020/12/06 07:12:05;;;;;;;48.00;22.37;;;;;;;;;;5074812;28;20523;-70
2020/12/06 07:14:31;;;;;;;45.23;22.57;;;;;;;;;;5075588;28;20602;-70
2020/12/06 07:16:58;;;;;;;54.13;22.87;;;;;;;;;;5074497;28;20432;-70
2020/12/06 07:19:24;;;;;;;56.83;20.33;;;;;;;;;;5071701;28;20428;-70
2020/12/06 07:21:51;;;;;;;60.93;22.83;;;;;;;;;;5071866;28;20437;-70
2020/12/06 07:24:18;;;;;;;58.23;23.17;;;;;;;;;;5075235;28;20425;-70
2020/12/06 07:26:45;;;;;;;43.80;18.67;;;;;;;;;;5074149;28;20453;-70
2020/12/06 07:29:11;;;;;;;62.63;22.90;;;;;;;;;;5073771;28;20853;-70
2020/12/06 07:31:37;;;;;;;59.63;21.07;;;;;;;;;;5074066;28;20512;-71
2020/12/06 07:34:03;;;;;;;66.27;21.60;;;;;;;;;;5075265;28;20457;-70
2020/12/06 07:36:32;;;;;;;59.50;22.00;;;;;;;;;;5074095;28;20515;-70
2020/12/06 07:38:59;;;;;;;40.60;19.50;;;;;;;;;;5073608;28;20413;-73
2020/12/06 07:41:25;;;;;;;57.47;23.00;;;;;;;;;;5073462;28;20432;-70
2020/12/06 07:43:55;;;;;;;48.90;16.10;;;;;;;;;;5074904;28;20452;-70
2020/12/06 07:46:21;;;;;;;60.60;19.87;;;;;;;;;;5073771;28;20452;-71
2020/12/06 07:48:48;;;;;;;60.07;19.60;;;;;;;;;;5074921;28;20401;-70
2020/12/06 07:51:24;;;;;;;50.70;18.87;;;;;;;;;;5073704;28;20412;-70
2020/12/06 07:53:51;;;;;;;48.10;17.77;;;;;;;;;;5074938;28;20913;-70
2020/12/06 07:56:18;;;;;;;45.63;19.07;;;;;;;;;;5073620;28;20421;-70
2020/12/06 07:58:59;;;;;;;54.83;18.27;;;;;;;;;;5074830;28;20973;-70
2020/12/06 08:01:26;;;;;;;50.33;20.00;;;;;;;;;;5072594;28;20823;-70
2020/12/06 08:03:55;;;;;;;49.40;18.70;;;;;;;;;;5074746;28;20444;-70
2020/12/06 08:06:21;;;;;;;40.13;17.17;;;;;;;;;;5073472;28;20487;-69
2020/12/06 08:08:49;;;;;;;36.93;16.00;;;;;;;;;;5073760;28;20904;-69
2020/12/06 08:11:16;;;;;;;40.30;15.77;;;;;;;;;;5071068;28;20417;-70
2020/12/06 08:13:42;;;;;;;37.43;17.03;;;;;;;;;;5072993;28;20429;-71
2020/12/06 08:16:08;;;;;;;37.23;15.20;;;;;;;;;;5072595;28;20925;-71
2020/12/06 08:18:34;;;;;;;27.67;12.17;;;;;;;;;;5074212;28;20414;-70
2020/12/06 08:21:01;;;;;;;28.23;12.63;;;;;;;;;;5069166;28;20577;-70
2020/12/06 08:23:30;;;;;;;27.83;13.50;;;;;;;;;;5073346;28;20421;-71
2020/12/06 08:25:56;;;;;;;26.77;13.73;;;;;;;;;;5073068;28;20449;-71
2020/12/06 08:28:22;;;;;;;29.80;12.40;;;;;;;;;;5073770;28;20417;-70
2020/12/06 08:30:48;;;;;;;30.20;11.97;;;;;;;;;;5072762;28;20425;-71
2020/12/06 08:33:22;;;;;;;39.90;14.57;;;;;;;;;;5073612;28;20448;-70
2020/12/06 08:35:51;;;;;;;29.53;12.93;;;;;;;;;;5070882;28;20425;-71
2020/12/06 08:38:21;;;;;;;29.53;14.10;;;;;;;;;;5073713;28;20409;-70
2020/12/06 08:40:56;;;;;;;32.07;14.70;;;;;;;;;;5058614;28;20777;-70
2020/12/06 08:43:22;;;;;;;27.73;11.63;;;;;;;;;;5073379;28;20558;-71
2020/12/06 08:46:04;;;;;;;23.37;11.47;;;;;;;;;;5071824;28;20481;-70
2020/12/06 08:48:31;;;;;;;31.73;14.40;;;;;;;;;;5073686;28;20405;-71
2020/12/06 08:50:57;;;;;;;26.80;13.80;;;;;;;;;;5071629;28;20413;-70
2020/12/06 08:53:23;;;;;;;19.47;10.37;;;;;;;;;;5073092;28;20818;-70
2020/12/06 08:55:49;;;;;;;28.80;12.70;;;;;;;;;;5071390;28;20424;-69
2020/12/06 08:58:30;;;;;;;20.13;12.23;;;;;;;;;;5072884;28;20811;-71
2020/12/06 09:01:03;;;;;;;25.77;12.73;;;;;;;;;;5071595;28;20412;-69
2020/12/06 09:03:29;;;;;;;27.60;11.60;;;;;;;;;;5072963;28;20889;-71
2020/12/06 09:05:55;;;;;;;23.97;12.20;;;;;;;;;;5072182;28;20476;-69
2020/12/06 09:08:21;;;;;;;27.40;13.20;;;;;;;;;;5073190;28;20480;-71
2020/12/06 09:10:47;;;;;;;28.50;13.47;;;;;;;;;;5072313;28;20432;-68
2020/12/06 09:13:13;;;;;;;23.47;12.33;;;;;;;;;;5072431;28;20431;-71
2020/12/06 09:15:39;;;;;;;20.10;10.73;;;;;;;;;;5072586;28;20508;-70
2020/12/06 09:18:05;;;;;;;29.37;14.70;;;;;;;;;;5071333;28;20429;-70
2020/12/06 09:20:31;;;;;;;23.97;12.77;;;;;;;;;;5072101;28;20432;-70
2020/12/06 09:22:56;;;;;;;23.90;12.97;;;;;;;;;;5067990;28;20445;-69
2020/12/06 09:25:22;;;;;;;25.47;11.90;;;;;;;;;;5071275;28;20463;-70
2020/12/06 09:27:48;;;;;;;20.07;11.00;;;;;;;;;;5071673;28;20586;-70
2020/12/06 09:30:14;;;;;;;25.50;11.77;;;;;;;;;;5073090;28;20412;-70
2020/12/06 09:32:40;;;;;;;26.87;13.43;;;;;;;;;;5071918;28;20812;-70
2020/12/06 09:35:06;;;;;;;23.53;11.80;;;;;;;;;;5071270;28;20452;-70
2020/12/06 09:37:32;;;;;;;23.20;11.73;;;;;;;;;;5072158;28;20904;-70
2020/12/06 09:39:58;;;;;;;25.93;12.40;;;;;;;;;;5072953;28;20393;-70
2020/12/06 09:42:24;;;;;;;19.17;10.43;;;;;;;;;;5071923;28;20816;-70
2020/12/06 09:44:52;;;;;;;24.70;10.77;;;;;;;;;;5071880;28;20991;-70
2020/12/06 09:47:18;;;;;;;16.63;9.20;;;;;;;;;;5072398;28;20794;-70
2020/12/06 09:49:44;;;;;;;16.37;9.33;;;;;;;;;;5072894;28;20389;-70
2020/12/06 09:52:10;;;;;;;18.00;10.70;;;;;;;;;;5071834;28;20839;-71
2020/12/06 09:54:36;;;;;;;23.70;9.83;;;;;;;;;;5071938;28;20445;-70
2020/12/06 09:57:05;;;;;;;16.10;8.10;;;;;;;;;;5072156;28;20940;-70
2020/12/06 09:59:31;;;;;;;17.90;9.37;;;;;;;;;;5072958;28;20458;-70
2020/12/06 10:01:57;;;;;;;14.60;8.57;;;;;;;;;;5072011;28;20819;-70
2020/12/06 10:04:23;;;;;;;20.57;9.50;;;;;;;;;;5072772;28;20413;-70
2020/12/06 10:06:49;;;;;;;17.93;7.23;;;;;;;;;;5071995;28;20456;-70
2020/12/06 10:09:15;;;;;;;15.77;8.73;;;;;;;;;;5072941;28;20401;-70
2020/12/06 10:11:41;;;;;;;10.13;5.90;;;;;;;;;;5071891;28;20467;-70
2020/12/06 10:14:07;;;;;;;18.57;9.07;;;;;;;;;;5074637;28;20460;-70
2020/12/06 10:16:33;;;;;;;13.73;7.40;;;;;;;;;;5075620;28;20432;-70
2020/12/06 10:18:59;;;;;;;13.30;7.40;;;;;;;;;;5075294;28;20428;-70
2020/12/06 10:21:25;;;;;;;17.43;8.80;;;;;;;;;;5075524;28;20401;-70
2020/12/06 10:23:51;;;;;;;13.60;7.87;;;;;;;;;;5071578;28;20819;-69
2020/12/06 10:26:17;;;;;;;13.43;6.97;;;;;;;;;;5066620;28;20516;-68
2020/12/06 10:28:43;;;;;;;11.83;6.43;;;;;;;;;;5075956;28;20940;-70
2020/12/06 10:31:09;;;;;;;36.13;19.10;;;;;;;;;;5076536;28;20424;-70
2020/12/06 10:33:35;;;;;;;12.13;6.67;;;;;;;;;;5074117;28;20545;-70
2020/12/06 10:36:01;;;;;;;10.00;6.23;;;;;;;;;;5076526;28;20496;-70
2020/12/06 10:38:27;;;;;;;9.47;6.30;;;;;;;;;;5075123;28;20463;-70
2020/12/06 10:40:53;;;;;;;11.50;5.80;;;;;;;;;;5076476;28;20406;-70
2020/12/06 10:43:19;;;;;;;12.77;6.10;;;;;;;;;;5075294;28;20433;-70
2020/12/06 10:45:45;;;;;;;13.23;4.97;;;;;;;;;;5076415;28;20795;-70
2020/12/06 10:48:11;;;;;;;13.67;7.70;;;;;;;;;;5076119;28;20450;-70
2020/12/06 10:50:37;;;;;;;12.63;6.13;;;;;;;;;;5076580;28;20518;-70
2020/12/06 10:53:03;;;;;;;12.07;6.50;;;;;;;;;;5073798;28;20435;-70
2020/12/06 10:55:29;;;;;;;11.90;6.40;;;;;;;;;;5075187;28;20441;-70
2020/12/06 10:57:55;;;;;;;14.23;7.37;;;;;;;;;;5075263;28;20429;-70
2020/12/06 11:00:21;;;;;;;8.93;5.70;;;;;;;;;;5074848;28;20424;-70
2020/12/06 11:02:48;;;;;;;13.30;7.00;;;;;;;;;;5075345;28;20432;-69
2020/12/06 11:05:13;;;;;;;15.17;7.10;;;;;;;;;;5079987;28;20459;-70
2020/12/06 11:07:39;;;;;;;16.67;7.30;;;;;;;;;;5076015;28;20504;-69
2020/12/06 11:10:06;;;;;;;15.50;7.17;;;;;;;;;;5076474;28;20400;-69
2020/12/06 11:12:32;;;;;;;10.97;6.40;;;;;;;;;;5075673;28;20760;-69
2020/12/06 11:14:58;;;;;;;14.90;6.60;;;;;;;;;;5075811;28;20456;-70
2020/12/06 11:17:24;;;;;;;13.77;8.00;;;;;;;;;;5074498;28;20925;-70
2020/12/06 11:19:50;;;;;;;14.93;8.03;;;;;;;;;;5075467;28;20918;-69
2020/12/06 11:22:16;;;;;;;15.10;7.50;;;;;;;;;;5074854;28;20432;-69
2020/12/06 11:24:42;;;;;;;13.40;6.37;;;;;;;;;;5074623;28;20474;-69
2020/12/06 11:27:08;;;;;;;15.93;8.03;;;;;;;;;;5071392;28;20837;-69
2020/12/06 11:29:34;;;;;;;17.30;8.50;;;;;;;;;;5075270;28;20421;-69
2020/12/06 11:32:00;;;;;;;15.03;7.37;;;;;;;;;;5073143;28;20452;-70
2020/12/06 11:34:26;;;;;;;11.33;6.73;;;;;;;;;;5075103;28;20409;-70
2020/12/06 11:36:52;;;;;;;11.80;7.03;;;;;;;;;;5074029;28;20398;-69
2020/12/06 11:39:18;;;;;;;14.17;8.10;;;;;;;;;;5075003;28;20915;-69
2020/12/06 11:41:44;;;;;;;18.30;9.97;;;;;;;;;;5074408;28;20404;-69
2020/12/06 11:44:10;;;;;;;11.13;7.63;;;;;;;;;;5074210;28;20437;-70
2020/12/06 11:46:36;;;;;;;21.03;8.27;;;;;;;;;;5073558;28;20968;-70
2020/12/06 11:49:02;;;;;;;22.13;8.13;;;;;;;;;;5069519;28;20429;-70
2020/12/06 11:51:28;;;;;;;17.77;8.20;;;;;;;;;;5054882;28;20804;-71
2020/12/06 11:53:54;;;;;;;15.90;8.47;;;;;;;;;;5071049;28;20437;-68
2020/12/06 11:56:22;;;;;;;16.13;7.80;;;;;;;;;;5075065;28;20420;-70
2020/12/06 11:58:48;;;;;;;11.70;7.30;;;;;;;;;;5073957;28;20429;-69
2020/12/06 12:01:15;;;;;;;16.00;8.60;;;;;;;;;;5073544;28;20483;-69
2020/12/06 12:03:41;;;;;;;14.07;7.27;;;;;;;;;;5072442;28;20810;-69
2020/12/06 12:06:07;;;;;;;11.70;6.17;;;;;;;;;;5073697;28;20453;-70
2020/12/06 12:08:33;;;;;;;12.80;6.13;;;;;;;;;;5073645;28;20424;-70
2020/12/06 12:10:59;;;;;;;14.53;7.03;;;;;;;;;;5074669;28;20424;-70
2020/12/06 12:13:27;;;;;;;10.00;5.30;;;;;;;;;;5073587;28;20425;-69
2020/12/06 12:15:53;;;;;;;8.37;5.23;;;;;;;;;;5074485;28;20894;-69
2020/12/06 12:18:19;;;;;;;12.50;5.80;;;;;;;;;;5071907;28;20440;-69
2020/12/06 12:20:45;;;;;;;10.40;5.90;;;;;;;;;;5074220;28;20405;-69
2020/12/06 12:23:11;;;;;;;12.40;4.90;;;;;;;;;;5073041;28;20425;-69
2020/12/06 12:25:37;;;;;;;10.70;5.40;;;;;;;;;;5074569;28;20933;-70
2020/12/06 12:28:03;;;;;;;13.27;5.27;;;;;;;;;;5071756;28;20833;-69
2020/12/06 12:30:29;;;;;;;11.80;6.33;;;;;;;;;;5073277;28;20428;-69
2020/12/06 12:32:55;;;;;;;8.60;4.63;;;;;;;;;;5072728;28;20444;-69
2020/12/06 12:35:21;;;;;;;10.37;5.10;;;;;;;;;;5073699;28;20425;-69
2020/12/06 12:37:48;;;;;;;8.50;5.00;;;;;;;;;;5071985;28;20425;-69
2020/12/06 12:40:14;;;;;;;11.93;4.60;;;;;;;;;;5073497;28;20478;-69
2020/12/06 12:42:40;;;;;;;7.97;5.50;;;;;;;;;;5069750;28;20455;-68
2020/12/06 12:45:06;;;;;;;8.20;5.30;;;;;;;;;;5071198;28;20484;-68
2020/12/06 12:47:32;;;;;;;6.97;4.20;;;;;;;;;;5072123;28;20478;-71
2020/12/06 12:49:58;;;;;;;10.50;5.03;;;;;;;;;;5072910;28;20421;-69
2020/12/06 12:52:24;;;;;;;7.50;4.10;;;;;;;;;;5070305;28;20435;-69
2020/12/06 12:54:50;;;;;;;7.20;3.90;;;;;;;;;;5073441;28;20413;-70
2020/12/06 12:57:16;;;;;;;7.60;4.60;;;;;;;;;;5072877;28;20492;-69
2020/12/06 12:59:42;;;;;;;9.17;4.47;;;;;;;;;;5073768;28;20484;-70
2020/12/06 13:02:08;;;;;;;4.97;3.53;;;;;;;;;;5073753;28;20401;-70
2020/12/06 13:04:34;;;;;;;5.83;3.60;;;;;;;;;;5072323;28;20449;-70
2020/12/06 13:07:01;;;;;;;8.43;4.37;;;;;;;;;;5073802;28;20951;-70
2020/12/06 13:09:27;;;;;;;5.73;4.27;;;;;;;;;;5072421;28;20474;-70
2020/12/06 13:11:56;;;;;;;11.93;4.73;;;;;;;;;;5072227;28;20425;-70
2020/12/06 13:14:23;;;;;;;7.00;4.27;;;;;;;;;;5071157;28;20956;-70
2020/12/06 13:16:49;;;;;;;6.03;3.63;;;;;;;;;;5073261;28;20943;-69
2020/12/06 13:19:15;;;;;;;5.27;3.23;;;;;;;;;;5070460;28;20429;-70
2020/12/06 13:21:41;;;;;;;9.90;3.90;;;;;;;;;;5073781;28;20951;-70
2020/12/06 13:24:07;;;;;;;8.07;4.27;;;;;;;;;;5072012;28;20536;-70
2020/12/06 13:26:33;;;;;;;5.27;2.97;;;;;;;;;;5073071;28;20477;-70
2020/12/06 13:28:59;;;;;;;5.97;3.73;;;;;;;;;;5072282;28;20489;-70
2020/12/06 13:31:25;;;;;;;5.97;3.13;;;;;;;;;;5070929;28;20440;-71
2020/12/06 13:33:51;;;;;;;6.40;3.80;;;;;;;;;;5071738;28;20476;-70
2020/12/06 13:36:17;;;;;;;10.23;4.30;;;;;;;;;;5073125;28;20450;-70
2020/12/06 13:38:43;;;;;;;5.53;3.57;;;;;;;;;;5072549;28;20516;-70
2020/12/06 13:41:09;;;;;;;6.00;4.23;;;;;;;;;;5073049;28;20401;-70
2020/12/06 13:43:35;;;;;;;7.50;4.27;;;;;;;;;;5072319;28;20428;-70
2020/12/06 13:46:01;;;;;;;6.20;3.33;;;;;;;;;;5072080;28;20461;-70
2020/12/06 13:48:27;;;;;;;7.43;3.77;;;;;;;;;;5077121;28;20906;-70
2020/12/06 13:50:53;;;;;;;4.60;2.63;;;;;;;;;;5079567;28;20401;-70
2020/12/06 13:53:19;;;;;;;4.60;3.00;;;;;;;;;;5078482;28;20435;-70
2020/12/06 13:55:45;;;;;;;5.17;3.10;;;;;;;;;;5078297;28;20409;-70
2020/12/06 13:58:11;;;;;;;7.17;3.80;;;;;;;;;;5078519;28;20439;-69
2020/12/06 14:00:37;;;;;;;4.13;3.17;;;;;;;;;;5079684;28;20878;-69
2020/12/06 14:03:03;;;;;;;4.57;3.37;;;;;;;;;;5078525;28;20482;-70
2020/12/06 14:05:29;;;;;;;7.67;3.50;;;;;;;;;;5079396;28;20452;-71
2020/12/06 14:07:55;;;;;;;8.20;4.60;;;;;;;;;;5078666;28;20448;-70
2020/12/06 14:10:21;;;;;;;4.33;3.33;;;;;;;;;;5079454;28;20432;-69
2020/12/06 14:12:47;;;;;;;7.33;4.03;;;;;;;;;;5078328;28;20772;-69
2020/12/06 14:15:13;;;;;;;5.87;3.40;;;;;;;;;;5079327;28;20421;-70
2020/12/06 14:17:39;;;;;;;4.77;3.10;;;;;;;;;;5078806;28;20412;-69
2020/12/06 14:20:05;;;;;;;4.63;3.23;;;;;;;;;;5077837;28;20763;-70